Weather at El Jora Airport

Public forecast

Using degrees Celsius for public forecast. Weather courtesy of forecast.io.

Closest aviation weather report (METAR) to El Jora Airport

Report is more than 2 hours old.

Closest report is El Arish International Airport, 16.3 nm (30.1 km) W.

2024/06/18 22:00 (retrieved 5 hours ago)

HEAR 182200Z 35002KT CAVOK 24/20 Q1009 NOSIG

Aviation forecast (TAF) for El Jora Airport

Forecast is more than 12 hours old.

2024/06/18 12:00 (retrieved 15 hours ago)

TAF HEGR 181100Z 1812/1918 34008KT 9999 FEW025